This is the latest recevied weather packets stored in our database for station/object KB3AWQ. If no packets are shown the sender has not sent any weather packets the latest 1 day(s).
| Time | Temp. | Humidity | Pressure | Rain* | Wind** | Luminosity | Snow |
|---|---|---|---|---|---|---|---|
| 1836274734 | 18.33° C | 70% | 1022 hPa | 0 mm | 0 m/s | 0 W/m² | - |
| 1836274585 | 17.78° C | 72% | 1022 hPa | 0 mm | 0 m/s | 0 W/m² | - |
| 1836274434 | 18.33° C | 67% | 1022 hPa | 0 mm | 0.45 m/s, 315° | 0 W/m² | - |
| 1836274284 | 17.78° C | 71% | 1022 hPa | 0 mm | 0 m/s | 0 W/m² | - |
| 1836274134 | 18.89° C | 66% | 1022 hPa | 0 mm | 0 m/s | 0 W/m² | - |
| 1778033067 | 17.78° C | 79% | 1008.1 hPa | 0 mm | 0 m/s | 0 W/m² | - |
| 1778032766 | 17.78° C | 78% | 1008.1 hPa | 0 mm | 0 m/s | 0 W/m² | - |
| 1778032466 | 17.78° C | 78% | 1008.1 hPa | 0 mm | 0 m/s | 0 W/m² | - |
| 1778032167 | 17.78° C | 78% | 1008.1 hPa | 0 mm | 0 m/s | 0 W/m² | - |
| 1778031866 | 18.33° C | 77% | 1008.2 hPa | 0 mm | 0 m/s | 0 W/m² | - |
| 1778031566 | 18.33° C | 77% | 1008.2 hPa | 0 mm | 0 m/s | 0 W/m² | - |
| 1778030982 | 18.89° C | 76% | 1008 hPa | 0 mm | 0 m/s | 0 W/m² | - |
| 1778030667 | 18.89° C | 76% | 1007.9 hPa | 0 mm | 0 m/s | 0 W/m² | - |
| 1778030366 | 18.89° C | 75% | 1007.9 hPa | 0 mm | 0 m/s | 0 W/m² | - |
| 1778029883 | 19.44° C | 74% | 1007.7 hPa | 0 mm | 0 m/s | 0 W/m² | - |
| 1778029467 | 19.44° C | 73% | 1007.7 hPa | 0 mm | 0 m/s | 0 W/m² | - |
| 1778029166 | 19.44° C | 72% | 1007.8 hPa | 0 mm | 0 m/s | 0 W/m² | - |
| 1778028867 | 20° C | 72% | 1007.8 hPa | 0 mm | 0 m/s | 0 W/m² | - |
| 1778028568 | 20° C | 71% | 1007.8 hPa | 0 mm | 0 m/s | 0 W/m² | - |
| 1778028267 | 20.56° C | 70% | 1007.7 hPa | 0 mm | 0 m/s | 0 W/m² | - |
| 1778027966 | 20.56° C | 69% | 1007.7 hPa | 0 mm | 0 m/s | 0 W/m² | - |
| 1778027666 | 20.56° C | 67% | 1007.7 hPa | 0 mm | 0 m/s | 0 W/m² | - |
| 1778027366 | 21.11° C | 66% | 1007.6 hPa | 0 mm | 0 m/s | 0 W/m² | - |
| 1778027066 | 21.11° C | 65% | 1007.5 hPa | 0 mm | 0 m/s | 0 W/m² | - |
| 1778026766 | 21.67° C | 65% | 1007.3 hPa | 0 mm | 0 m/s | 1 W/m² | - |
* Rain latest hour (hover to see other rain measurements)
** Current wind speed in m/s (hover to see current wind gust speed)